Terminal Aerodrome Forecast
Issued by NWS Upton, NY

Home | Current Version | Previous Version | Text Only | Print | Product List | Glossary On
Versions: 1 2 3 4 5 6 7 8 9 10 11 12 13 14 15 16 17 18 19 20 21 22 23 24 25 26 27 28 29
578
FTUS41 KOKX 291537 AAB
TAFBDR
TAF AMD
KBDR 291537Z 2916/3012 02008KT 4SM -RA BKN008 OVC040
     FM291700 05008KT P6SM BKN080
      TEMPO 2917/2918 BKN050
     FM292200 05005KT P6SM BKN100
     FM300000 VRB03KT P6SM BKN120
     FM300400 VRB03KT P6SM SCT250=

USA.gov is the U.S. government's official web portal to all federal, state and local government web resources and services.